createdAt,value
2022-11-05T00:00:31.901Z,99765.53
2022-11-05T00:03:17.669Z,99759.47
2022-11-05T00:06:05.375Z,99750.19
2022-11-05T00:08:51.251Z,99757.13
2022-11-05T00:11:18.650Z,99767.69
2022-11-05T00:14:04.060Z,99763.25
2022-11-05T00:16:46.356Z,99770.19
2022-11-05T00:19:15.091Z,99770.00
2022-11-05T00:22:00.946Z,99777.53
2022-11-05T00:24:46.437Z,99775.41
2022-11-05T00:27:13.326Z,99771.50
2022-11-05T00:29:40.277Z,99767.47
2022-11-05T00:32:07.285Z,99770.44
2022-11-05T00:34:34.358Z,99768.16
2022-11-05T00:37:01.301Z,99766.75
2022-11-05T00:39:28.164Z,99768.75
2022-11-05T00:42:13.940Z,99763.66
2022-11-05T00:44:59.553Z,99770.81
2022-11-05T00:47:45.062Z,99775.41
2022-11-05T00:50:12.326Z,99768.53
2022-11-05T00:52:57.890Z,99775.66
2022-11-05T00:55:35.689Z,99770.59
2022-11-05T00:58:05.309Z,99779.50
2022-11-05T01:00:33.847Z,99776.16
2022-11-05T01:03:03.508Z,99776.25
2022-11-05T01:05:32.291Z,99772.84
2022-11-05T01:07:59.450Z,99785.22
2022-11-05T01:10:26.568Z,99783.63
2022-11-05T01:12:54.041Z,99782.03
2022-11-05T01:15:21.585Z,99787.28
2022-11-05T01:17:48.821Z,99781.19
2022-11-05T01:20:16.603Z,99787.97
2022-11-05T01:22:43.601Z,99781.59
2022-11-05T01:25:10.690Z,99784.84
2022-11-05T01:27:38.281Z,99784.59
2022-11-05T01:30:07.901Z,99782.59
2022-11-05T01:32:36.429Z,99780.63
2022-11-05T01:35:08.168Z,99788.38
2022-11-05T01:37:36.448Z,99786.44
2022-11-05T01:40:04.124Z,99788.91
2022-11-05T01:42:32.433Z,99789.75
2022-11-05T01:45:26.567Z,99784.50
2022-11-05T01:48:16.629Z,99783.66
2022-11-05T01:51:01.450Z,99782.97
2022-11-05T01:53:44.900Z,99778.78
2022-11-05T01:56:14.648Z,99784.09
2022-11-05T01:58:56.934Z,99791.16
2022-11-05T02:01:25.149Z,99791.47
2022-11-05T02:03:57.609Z,99789.16
2022-11-05T02:06:27.560Z,99785.63
2022-11-05T02:09:00.230Z,99789.97
2022-11-05T02:11:27.031Z,99776.97
2022-11-05T02:13:54.124Z,99771.84
2022-11-05T02:16:29.222Z,99763.22
2022-11-05T02:19:05.805Z,99762.44
2022-11-05T02:21:58.670Z,99759.00
2022-11-05T02:24:31.684Z,99758.09
2022-11-05T02:27:16.412Z,99751.16
2022-11-05T02:30:03.148Z,99759.91
2022-11-05T02:32:54.885Z,99759.75
2022-11-05T02:35:50.126Z,99754.41
2022-11-05T02:38:32.193Z,99764.03
2022-11-05T02:41:31.646Z,99769.28
2022-11-05T02:44:16.789Z,99770.94
2022-11-05T02:47:12.893Z,99781.13
2022-11-05T02:50:02.499Z,99778.25
2022-11-05T02:52:37.793Z,99772.88
2022-11-05T02:55:18.846Z,99774.41
2022-11-05T02:57:47.962Z,99776.81
2022-11-05T03:00:55.004Z,99789.78
2022-11-05T03:03:36.829Z,99790.59
2022-11-05T03:06:35.151Z,99776.47
2022-11-05T03:09:24.050Z,99777.34
2022-11-05T03:12:15.387Z,99778.16
2022-11-05T03:15:11.294Z,99778.91
2022-11-05T03:17:38.090Z,99783.25
2022-11-05T03:20:22.075Z,99780.59
2022-11-05T03:23:01.209Z,99786.59
2022-11-05T03:25:29.607Z,99796.06
2022-11-05T03:28:00.877Z,99794.25
2022-11-05T03:30:28.401Z,99788.06
2022-11-05T03:33:03.673Z,99788.81
2022-11-05T03:35:40.627Z,99794.00
2022-11-05T03:38:13.358Z,99787.78
2022-11-05T03:40:41.610Z,99788.59
2022-11-05T03:43:09.680Z,99788.59
2022-11-05T03:45:51.676Z,99799.03
2022-11-05T03:48:21.086Z,99796.38
2022-11-05T03:51:11.270Z,99804.13
2022-11-05T03:53:46.042Z,99803.25
2022-11-05T03:56:36.092Z,99810.13
2022-11-05T03:59:06.617Z,99802.22
2022-11-05T04:01:36.348Z,99804.81
2022-11-05T04:04:05.562Z,99812.69
2022-11-05T04:06:51.026Z,99809.91
2022-11-05T04:09:36.989Z,99809.81
2022-11-05T04:12:23.143Z,99804.56
2022-11-05T04:14:50.202Z,99804.44
2022-11-05T04:17:17.454Z,99805.44
2022-11-05T04:20:04.339Z,99808.00
2022-11-05T04:22:53.002Z,99808.75
2022-11-05T04:25:21.546Z,99804.44
2022-11-05T04:27:49.046Z,99820.06
2022-11-05T04:30:18.472Z,99821.72
2022-11-05T04:33:00.338Z,99815.63
2022-11-05T04:35:30.506Z,99825.16
2022-11-05T04:37:57.574Z,99829.44
2022-11-05T04:40:25.142Z,99839.88
2022-11-05T04:42:54.564Z,99844.13
2022-11-05T04:45:23.460Z,99848.41
2022-11-05T04:47:50.643Z,99845.72
2022-11-05T04:50:18.301Z,99851.78
2022-11-05T04:52:45.414Z,99851.75
2022-11-05T04:55:12.739Z,99843.81
2022-11-05T04:57:40.109Z,99857.69
2022-11-05T05:00:08.361Z,99847.06
2022-11-05T05:02:38.558Z,99851.38
2022-11-05T05:05:05.950Z,99857.66
2022-11-05T05:07:34.900Z,99862.66
2022-11-05T05:10:03.758Z,99852.91
2022-11-05T05:12:32.790Z,99854.69
2022-11-05T05:14:59.911Z,99857.25
2022-11-05T05:17:27.132Z,99863.25
2022-11-05T05:20:13.143Z,99868.44
2022-11-05T05:22:41.230Z,99866.63
2022-11-05T05:25:08.879Z,99864.69
2022-11-05T05:27:35.965Z,99858.50
2022-11-05T05:30:03.936Z,99863.69
2022-11-05T05:32:30.995Z,99873.91
2022-11-05T05:34:58.520Z,99877.38
2022-11-05T05:37:25.596Z,99874.50
2022-11-05T05:39:53.726Z,99883.09
2022-11-05T05:42:23.189Z,99889.00
2022-11-05T05:44:50.260Z,99878.06
2022-11-05T05:47:17.455Z,99886.59
2022-11-05T05:49:44.467Z,99892.53
2022-11-05T05:52:11.662Z,99900.16
2022-11-05T05:54:42.781Z,99899.03
2022-11-05T05:57:10.374Z,99896.44
2022-11-05T05:59:37.963Z,99902.31
2022-11-05T06:02:05.273Z,99902.91
2022-11-05T06:04:32.528Z,99915.94
2022-11-05T06:06:59.799Z,99915.81
2022-11-05T06:09:26.762Z,99917.50
2022-11-05T06:11:53.944Z,99926.09
2022-11-05T06:14:21.302Z,99924.28
2022-11-05T06:16:48.485Z,99927.84
2022-11-05T06:19:15.587Z,99930.19
2022-11-05T06:21:42.713Z,99936.31
2022-11-05T06:24:10.856Z,99923.19
2022-11-05T06:26:43.013Z,99929.91
2022-11-05T06:29:10.856Z,99934.22
2022-11-05T06:31:38.399Z,99933.31
2022-11-05T06:34:05.876Z,99930.06
2022-11-05T06:36:33.650Z,99934.28
2022-11-05T06:39:01.006Z,99944.63
2022-11-05T06:41:28.503Z,99943.72
2022-11-05T06:43:55.889Z,99946.06
2022-11-05T06:46:23.439Z,99952.19
2022-11-05T06:48:51.251Z,99955.50
2022-11-05T06:51:19.006Z,99956.25
2022-11-05T06:53:46.223Z,99951.75
2022-11-05T06:56:13.249Z,99947.97
2022-11-05T06:58:40.675Z,99952.34
2022-11-05T07:01:10.234Z,99953.38
2022-11-05T07:03:39.038Z,99955.69
2022-11-05T07:06:07.783Z,99944.91
2022-11-05T07:08:36.890Z,99942.84
2022-11-05T07:11:04.947Z,99948.78
2022-11-05T07:13:32.273Z,99943.16
2022-11-05T07:15:59.462Z,99941.31
2022-11-05T07:18:27.038Z,99936.78
2022-11-05T07:20:54.204Z,99924.84
2022-11-05T07:23:21.280Z,99925.69
2022-11-05T07:25:48.285Z,99926.19
2022-11-05T07:28:15.524Z,99934.63
2022-11-05T07:30:42.436Z,99924.81
2022-11-05T07:33:10.211Z,99916.84
2022-11-05T07:35:37.301Z,99919.75
2022-11-05T07:38:04.533Z,99922.72
2022-11-05T07:40:31.921Z,99929.16
2022-11-05T07:43:00.892Z,99934.75
2022-11-05T07:45:30.425Z,99930.88
2022-11-05T07:48:03.540Z,99934.66
2022-11-05T07:50:33.300Z,99938.56
2022-11-05T07:53:02.479Z,99941.41
2022-11-05T07:55:30.314Z,99955.50
2022-11-05T07:57:57.716Z,99957.63
2022-11-05T08:00:25.947Z,99953.97
2022-11-05T08:03:07.605Z,99948.22
2022-11-05T08:05:37.885Z,99955.75
2022-11-05T08:08:06.480Z,99953.13
2022-11-05T08:10:34.295Z,99957.88
2022-11-05T08:13:02.099Z,99965.72
2022-11-05T08:15:29.427Z,99965.59
2022-11-05T08:18:12.197Z,99974.44
2022-11-05T08:20:39.602Z,99975.19
2022-11-05T08:23:06.680Z,99982.66
2022-11-05T08:25:34.347Z,99983.00
2022-11-05T08:28:05.421Z,99983.34
2022-11-05T08:30:33.202Z,99984.25
2022-11-05T08:33:05.792Z,99979.63
2022-11-05T08:35:35.060Z,99986.34
2022-11-05T08:38:04.053Z,99985.25
2022-11-05T08:40:33.367Z,99988.41
2022-11-05T08:43:05.233Z,99993.16
2022-11-05T08:45:38.283Z,99990.03
2022-11-05T08:48:09.198Z,99991.72
2022-11-05T08:50:37.481Z,99988.63
2022-11-05T08:53:06.303Z,99979.50
2022-11-05T08:55:33.959Z,99979.81
2022-11-05T08:58:03.374Z,99986.50
2022-11-05T09:00:33.537Z,100003.09
2022-11-05T09:03:02.431Z,100003.78
2022-11-05T09:05:31.407Z,100001.78
2022-11-05T09:08:01.453Z,99992.50
2022-11-05T09:10:29.097Z,99993.75
2022-11-05T09:12:56.649Z,99990.34
2022-11-05T09:15:24.682Z,99981.03
2022-11-05T09:17:52.184Z,99985.50
2022-11-05T09:20:19.776Z,99987.47
2022-11-05T09:22:47.164Z,99998.72
2022-11-05T09:25:15.982Z,100000.03
2022-11-05T09:27:43.865Z,99993.91
2022-11-05T09:30:13.532Z,99995.44
2022-11-05T09:32:41.202Z,99979.59
2022-11-05T09:35:09.456Z,99987.13
2022-11-05T09:37:38.174Z,99990.59
2022-11-05T09:40:06.115Z,99992.41
2022-11-05T09:42:40.869Z,99994.66
2022-11-05T09:45:13.633Z,99986.84
2022-11-05T09:47:43.217Z,100006.50
2022-11-05T09:50:20.316Z,100005.69
2022-11-05T09:52:47.603Z,100009.91
2022-11-05T09:55:39.243Z,100004.78
2022-11-05T09:58:35.978Z,100008.28
2022-11-05T10:01:07.718Z,100019.91
2022-11-05T10:03:43.675Z,100015.16
2022-11-05T10:06:19.373Z,100022.34
2022-11-05T10:08:53.039Z,100026.13
2022-11-05T10:11:37.536Z,100026.81
2022-11-05T10:14:49.578Z,100024.22
2022-11-05T10:17:22.613Z,100028.25
2022-11-05T10:20:02.523Z,100030.97
2022-11-05T10:22:29.662Z,100031.28
2022-11-05T10:24:56.975Z,100036.34
2022-11-05T10:27:31.351Z,100045.41
2022-11-05T10:29:58.872Z,100042.97
2022-11-05T10:32:34.411Z,100032.97
2022-11-05T10:35:04.571Z,100027.09
2022-11-05T10:37:37.021Z,100025.84
2022-11-05T10:40:18.608Z,100016.41
2022-11-05T10:42:48.314Z,100016.59
2022-11-05T10:45:30.813Z,100011.25
2022-11-05T10:48:29.952Z,100012.25
2022-11-05T10:50:57.730Z,100024.84
2022-11-05T10:53:33.104Z,100026.75
2022-11-05T10:56:00.713Z,100027.09
2022-11-05T10:58:34.862Z,100035.50
2022-11-05T11:01:07.053Z,100039.34
2022-11-05T11:03:39.474Z,100051.50
2022-11-05T11:06:28.125Z,100052.59
2022-11-05T11:08:58.077Z,100053.81
2022-11-05T11:11:38.516Z,100050.22
2022-11-05T11:14:18.803Z,100054.63
2022-11-05T11:16:48.142Z,100052.25
2022-11-05T11:19:25.490Z,100061.53
2022-11-05T11:22:04.488Z,100059.25
2022-11-05T11:24:43.617Z,100049.78
2022-11-05T11:27:22.835Z,100049.78
2022-11-05T11:30:01.587Z,100043.63
2022-11-05T14:01:46.114Z,100151.44
2022-11-05T14:04:27.975Z,100154.69
2022-11-05T14:07:05.841Z,100157.88
2022-11-05T14:09:36.136Z,100153.97
2022-11-05T14:12:05.453Z,100158.84
2022-11-05T14:14:48.106Z,100161.97
2022-11-05T14:17:31.010Z,100160.75
2022-11-05T14:20:04.713Z,100159.50
2022-11-05T14:22:32.081Z,100166.28
2022-11-05T14:25:23.427Z,100167.91
2022-11-05T14:27:52.711Z,100172.13
2022-11-05T14:30:41.079Z,100171.22
2022-11-05T14:33:27.228Z,100177.94
2022-11-05T14:36:20.314Z,100178.78
2022-11-05T14:38:51.134Z,100180.41
2022-11-05T14:41:19.803Z,100185.56
2022-11-05T14:44:13.267Z,100172.50
2022-11-05T14:46:47.179Z,100176.84
2022-11-05T14:49:21.456Z,100186.38
2022-11-05T14:51:51.644Z,100184.56
2022-11-05T14:54:34.021Z,100177.59
2022-11-05T14:57:02.659Z,100181.81
2022-11-05T14:59:31.827Z,100190.75
2022-11-05T15:02:02.588Z,100185.56
2022-11-05T15:04:32.951Z,100188.13
2022-11-05T15:07:03.228Z,100182.78
2022-11-05T15:09:33.321Z,100182.66
2022-11-05T15:12:10.278Z,100175.81
2022-11-05T15:15:00.555Z,100180.09
2022-11-05T15:17:39.577Z,100180.06
2022-11-05T15:20:06.783Z,100181.16
2022-11-05T15:22:40.419Z,100182.72
2022-11-05T15:25:29.873Z,100180.19
2022-11-05T15:28:05.945Z,100192.44
2022-11-05T15:30:33.402Z,100189.75
2022-11-05T15:33:20.981Z,100194.22
2022-11-05T15:35:48.833Z,100195.84
2022-11-05T15:38:34.403Z,100190.59
2022-11-05T15:41:21.310Z,100196.03
2022-11-05T15:43:49.911Z,100189.91
2022-11-05T15:46:31.044Z,100193.44
2022-11-05T15:49:04.656Z,100183.81
2022-11-05T15:51:32.288Z,100195.91
2022-11-05T15:54:29.232Z,100195.16
2022-11-05T15:57:00.351Z,100196.81
2022-11-05T15:59:29.807Z,100196.91
2022-11-05T16:02:06.113Z,100196.81
2022-11-05T16:04:35.426Z,100202.19
2022-11-05T16:07:12.301Z,100193.53
2022-11-05T16:09:44.136Z,100190.03
2022-11-05T16:12:38.108Z,100206.59
2022-11-05T16:15:08.144Z,100210.25
2022-11-05T16:17:47.613Z,100215.53
2022-11-05T16:20:23.629Z,100218.03
2022-11-05T16:22:54.319Z,100213.88
2022-11-05T16:25:43.301Z,100225.38
2022-11-05T16:28:22.506Z,100222.69
2022-11-05T16:31:02.526Z,100233.28
2022-11-05T16:33:43.016Z,100227.97
2022-11-05T16:36:10.439Z,100221.97
2022-11-05T16:38:37.527Z,100224.69
2022-11-05T16:41:07.052Z,100232.59
2022-11-05T16:43:34.683Z,100239.69
2022-11-05T16:46:02.356Z,100240.56
2022-11-05T16:48:29.562Z,100238.22
2022-11-05T16:50:56.840Z,100251.97
2022-11-05T16:53:24.015Z,100253.72
2022-11-05T16:55:51.202Z,100248.41
2022-11-05T16:58:24.086Z,100256.31
2022-11-05T17:00:56.474Z,100251.13
2022-11-05T17:03:24.086Z,100265.09
2022-11-05T17:05:51.240Z,100264.38
2022-11-05T17:08:18.367Z,100268.81
2022-11-05T17:10:45.583Z,100266.97
2022-11-05T17:13:15.667Z,100267.03
2022-11-05T17:15:44.955Z,100273.19
2022-11-05T17:18:17.966Z,100270.59
2022-11-05T17:20:51.398Z,100269.81
2022-11-05T17:23:21.017Z,100261.19
2022-11-05T17:25:54.689Z,100260.28
2022-11-05T17:28:22.007Z,100264.66
2022-11-05T17:30:52.921Z,100263.03
2022-11-05T17:33:23.120Z,100263.81
2022-11-05T17:35:51.579Z,100258.38
2022-11-05T17:38:18.954Z,100254.03
2022-11-05T17:40:45.887Z,100254.00
2022-11-05T17:43:13.076Z,100250.47
2022-11-05T17:45:45.354Z,100255.72
2022-11-05T17:48:13.001Z,100249.59
2022-11-05T17:50:44.666Z,100246.06
2022-11-05T17:53:12.877Z,100248.03
2022-11-05T17:55:45.114Z,100246.41
2022-11-05T17:58:12.452Z,100263.03
2022-11-05T18:00:40.057Z,100259.66
2022-11-05T18:03:07.218Z,100261.44
2022-11-05T18:05:34.909Z,100260.53
2022-11-05T20:44:05.146Z,100363.94
2022-11-05T20:46:32.257Z,100366.41
2022-11-05T20:48:59.607Z,100361.00
2022-11-05T20:51:26.783Z,100366.06
2022-11-05T20:54:01.879Z,100367.56
2022-11-05T20:56:31.917Z,100368.16
2022-11-05T20:59:00.947Z,100371.44
2022-11-05T21:01:31.386Z,100377.38
2022-11-05T21:04:00.007Z,100372.78
2022-11-05T21:06:27.499Z,100373.47
2022-11-05T21:08:55.467Z,100377.72
2022-11-05T21:11:23.258Z,100375.84
2022-11-05T21:13:51.007Z,100374.75
2022-11-05T21:16:20.682Z,100376.44
2022-11-05T21:18:48.639Z,100376.25
2022-11-05T21:21:20.712Z,100385.94
2022-11-05T21:23:48.550Z,100377.88
2022-11-05T21:26:18.112Z,100384.78
2022-11-05T21:28:45.707Z,100381.31
2022-11-05T21:31:13.359Z,100391.84
2022-11-05T21:33:40.807Z,100392.53
2022-11-05T21:36:13.760Z,100395.16
2022-11-05T21:38:41.239Z,100398.59
2022-11-05T21:41:08.993Z,100402.22
2022-11-05T21:43:38.750Z,100402.09
2022-11-05T21:46:06.258Z,100396.72
2022-11-05T21:48:34.191Z,100401.00
2022-11-05T21:51:20.157Z,100403.59
2022-11-05T21:54:06.813Z,100414.13
2022-11-05T21:56:52.678Z,100414.16
2022-11-05T21:59:41.655Z,100408.00
2022-11-05T22:02:11.491Z,100407.88
2022-11-05T22:04:41.925Z,100413.16
2022-11-05T22:07:10.799Z,100408.78
2022-11-05T22:09:38.749Z,100409.69
2022-11-05T22:12:06.953Z,100409.53
2022-11-05T22:14:34.628Z,100399.81
2022-11-05T22:17:02.307Z,100405.06
2022-11-05T22:19:30.801Z,100403.34
2022-11-05T22:21:58.045Z,100406.84
2022-11-05T22:24:25.842Z,100411.16
2022-11-05T22:26:53.279Z,100403.22
2022-11-05T22:29:20.505Z,100408.38
2022-11-05T22:31:47.978Z,100406.66
2022-11-05T22:34:14.978Z,100406.59
2022-11-05T22:36:42.289Z,100413.53
2022-11-05T22:39:11.929Z,100401.38
2022-11-05T22:41:39.624Z,100405.03
2022-11-05T22:44:06.912Z,100404.25
2022-11-05T22:46:34.010Z,100395.25
2022-11-05T22:49:01.141Z,100396.19
2022-11-05T22:51:31.453Z,100398.88
2022-11-05T22:53:59.531Z,100402.28
2022-11-05T22:56:29.618Z,100404.13
2022-11-05T22:58:57.503Z,100408.41
2022-11-05T23:01:25.370Z,100414.59
2022-11-05T23:03:54.448Z,100408.31
2022-11-05T23:06:42.454Z,100407.53
2022-11-05T23:09:38.381Z,100404.03
2022-11-05T23:12:08.963Z,100403.09
2022-11-05T23:14:36.778Z,100411.00
2022-11-05T23:17:22.653Z,100407.56
2022-11-05T23:20:08.167Z,100409.28
2022-11-05T23:22:53.841Z,100403.22
2022-11-05T23:25:22.895Z,100411.00
2022-11-05T23:27:52.393Z,100419.84
2022-11-05T23:30:24.794Z,100411.84
2022-11-05T23:32:52.970Z,100413.66
2022-11-05T23:35:43.673Z,100413.78
2022-11-05T23:38:29.335Z,100414.53
2022-11-05T23:41:22.614Z,100412.00
2022-11-05T23:44:08.103Z,100417.28
2022-11-05T23:46:54.386Z,100408.69
2022-11-05T23:49:22.230Z,100423.47
2022-11-05T23:51:49.676Z,100423.47
2022-11-05T23:54:16.605Z,100426.91
2022-11-05T23:56:43.552Z,100425.97
2022-11-05T23:59:10.921Z,100424.19
